Terminal Aerodrome Forecast
Issued by NWS Memphis, TN

Home | Current Version | Previous Version | Text Only | Print | Product List | Glossary On
Versions: 1 2 3 4 5 6 7 8 9 10 11 12 13 14
000
FTUS44 KMEG 222326
TAFJBR
TAF
KJBR 222326Z 2300/2324 06013KT P6SM OVC100
     FM230900 06005KT P6SM SCT040 OVC070
     FM231900 16008KT P6SM BKN100
     FM232200 16009KT P6SM FEW250=

USA.gov is the U.S. government's official web portal to all federal, state and local government web resources and services.